Seward, AK (99664)

2:41 PM AKST on January 17, 2017 (GMT -0900)
Hook Towers | | Change Station

Elev 171 ft 60.13 °N, 149.45 °W | Updated 12 seconds ago

Clear
Clear
8.2 °F
Feels Like 2 °F
N
3.1
Wind Variable Wind from North
Gusts 3.1 mph

Today
High -- | Low -- °F
--% Chance of Precip.
Yesterday
High -- | Low -- °F
Precip. -- in
Pressure 29.26 in
Visibility 10.0 miles
Clouds Clear
Windchill 2 °F
Dew Point 1 °F
Humidity 71%
Rainfall 0.00 in
Snow Depth Not available.
9:41 AM 4:34 PM
Waning Gibbous, 68% visible
METAR PAWD 172253Z AUTO 02011G27KT 10SM CLR M11/M18 A2926 RMK AO2 PK WND 36027/2249 SLP907 T11111183 TSNO
Pressure 29.26 in
Visibility 10.0 miles
Clouds Clear
Windchill 2 °F
Dew Point 1 °F
Humidity 71%
Rainfall 0.00 in
Snow Depth Not available.
9:41 AM 4:34 PM
Waning Gibbous, 68% visible
METAR PAWD 172253Z AUTO 02011G27KT 10SM CLR M11/M18 A2926 RMK AO2 PK WND 36027/2249 SLP907 T11111183 TSNO

Get Your Daily Forecast Email!

Thanks for signing up!

Be on the lookout for a verification email in your inbox.

You'll start receiving the daily forecast at 8 AM.

×

10-Day Weather Forecast

Almanac

Astronomy

Jan. 17, 2017 Rise Set
Actual Time
Civil Twilight
Nautical Twilight
Astronomical Twilight
Moon
Length of Visible Light
Length of Day
Tomorrow will be .
, % of the Moon is Illuminated

Today's Extremes

State Highs State Lows

Community

WunderPhotos

Upload Photos

1,962,540 photos uploaded!

WunderBlog® & News

Nearby

Air Quality

  Air Quality AQ Index Pollutant
Not available.

Snow Depth

Station Depth Elevation

Earthquake Activity

City Distance Mag. Time & Date
Minimum magnitude displayed is 2.5.

Coastal Water Temperatures

Place Temperature

Stations

Nearby Weather Stations

Station Location Temp. Windchill Dew Point Humidity Wind Precip. Elev Updated Type
                   

Watches & Warnings

There are currently no watches in effect.